createdAt,value
2019-02-24T00:02:18.313Z,9.00
2019-02-24T00:04:59.161Z,10.07
2019-02-24T00:07:39.941Z,9.37
2019-02-24T00:10:21.022Z,9.97
2019-02-24T00:13:01.911Z,9.77
2019-02-24T00:15:30.340Z,9.83
2019-02-24T00:18:18.077Z,9.90
2019-02-24T00:21:05.872Z,9.50
2019-02-24T00:23:53.637Z,10.17
2019-02-24T00:26:41.710Z,10.60
2019-02-24T00:29:29.472Z,10.50
2019-02-24T00:32:17.232Z,9.83
2019-02-24T00:35:05.647Z,10.80
2019-02-24T00:37:53.413Z,10.50
2019-02-24T00:40:41.405Z,10.50
2019-02-24T00:43:29.155Z,10.13
2019-02-24T00:46:09.772Z,10.40
2019-02-24T00:48:50.348Z,10.70
2019-02-24T00:51:30.881Z,10.90
2019-02-24T00:54:11.021Z,11.13
2019-02-24T00:56:51.821Z,17.93
2019-02-24T00:59:32.592Z,15.73
2019-02-24T01:02:13.366Z,15.33
2019-02-24T01:04:54.280Z,12.37
2019-02-24T01:07:34.648Z,14.70
2019-02-24T01:10:15.380Z,13.97
2019-02-24T01:12:56.019Z,20.30
2019-02-24T01:15:36.628Z,15.33
2019-02-24T01:18:17.787Z,13.00
2019-02-24T01:20:58.444Z,13.20
2019-02-24T01:23:39.213Z,12.50
2019-02-24T01:26:20.197Z,11.83
2019-02-24T01:29:00.984Z,10.77
2019-02-24T01:31:41.580Z,11.33
2019-02-24T01:34:22.442Z,11.40
2019-02-24T01:37:03.469Z,11.07
2019-02-24T01:39:44.007Z,11.87
2019-02-24T01:42:25.185Z,11.80
2019-02-24T01:45:05.790Z,11.23
2019-02-24T01:47:46.576Z,11.23
2019-02-24T01:50:27.235Z,11.27
2019-02-24T01:53:08.096Z,11.87
2019-02-24T01:55:48.927Z,11.80
2019-02-24T01:58:35.124Z,11.47
2019-02-24T02:01:11.385Z,12.10
2019-02-24T02:03:52.780Z,12.30
2019-02-24T02:06:33.252Z,12.77
2019-02-24T02:09:14.145Z,11.60
2019-02-24T02:11:54.812Z,12.50
2019-02-24T02:14:35.772Z,11.93
2019-02-24T02:17:16.789Z,12.43
2019-02-24T02:19:57.236Z,12.70
2019-02-24T02:22:37.838Z,12.20
2019-02-24T02:25:18.521Z,12.10
2019-02-24T02:27:58.737Z,13.03
2019-02-24T02:30:39.701Z,12.63
2019-02-24T02:33:20.223Z,13.03
2019-02-24T02:36:00.808Z,12.30
2019-02-24T02:38:41.484Z,12.70
2019-02-24T02:41:22.351Z,12.33
2019-02-24T02:44:03.021Z,12.83
2019-02-24T02:46:43.713Z,11.60
2019-02-24T02:49:24.595Z,12.87
2019-02-24T02:52:05.450Z,12.17
2019-02-24T02:54:45.977Z,11.80
2019-02-24T02:57:26.615Z,13.17
2019-02-24T03:00:08.349Z,14.30
2019-02-24T03:02:49.016Z,13.43
2019-02-24T03:05:29.593Z,12.70
2019-02-24T03:08:12.247Z,12.93
2019-02-24T03:10:52.488Z,12.10
2019-02-24T03:13:33.474Z,13.07
2019-02-24T03:16:12.180Z,12.60
2019-02-24T03:18:59.969Z,12.93
2019-02-24T03:21:47.944Z,12.70
2019-02-24T03:24:35.708Z,13.13
2019-02-24T03:27:23.445Z,12.53
2019-02-24T03:30:11.253Z,13.00
2019-02-24T03:32:58.997Z,12.77
2019-02-24T03:35:46.762Z,13.13
2019-02-24T03:38:34.497Z,13.03
2019-02-24T03:41:22.275Z,12.83
2019-02-24T03:44:10.027Z,13.00
2019-02-24T03:46:57.789Z,12.50
2019-02-24T03:49:45.536Z,13.10
2019-02-24T03:52:40.842Z,13.00
2019-02-24T03:55:28.606Z,12.60
2019-02-24T03:58:09.754Z,13.20
2019-02-24T04:00:50.518Z,13.13
2019-02-24T04:03:31.243Z,13.50
2019-02-24T04:06:11.514Z,14.77
2019-02-24T04:08:52.593Z,12.67
2019-02-24T04:11:33.319Z,13.20
2019-02-24T04:14:14.257Z,13.37
2019-02-24T04:16:55.013Z,13.27
2019-02-24T04:19:35.905Z,13.93
2019-02-24T04:22:16.485Z,13.73
2019-02-24T04:24:57.299Z,13.07
2019-02-24T04:27:38.306Z,12.40
2019-02-24T04:30:19.112Z,13.70
2019-02-24T04:33:00.157Z,13.87
2019-02-24T04:35:40.860Z,12.77
2019-02-24T04:38:21.429Z,13.30
2019-02-24T04:41:02.605Z,12.87
2019-02-24T04:43:43.440Z,12.70
2019-02-24T04:46:24.479Z,13.83
2019-02-24T04:49:05.078Z,13.67
2019-02-24T04:51:45.605Z,13.37
2019-02-24T04:54:26.065Z,13.40
2019-02-24T04:57:07.238Z,13.57
2019-02-24T04:59:47.665Z,14.23
2019-02-24T05:02:28.726Z,14.47
2019-02-24T05:05:09.520Z,15.03
2019-02-24T05:07:50.391Z,13.80
2019-02-24T05:10:30.833Z,14.87
2019-02-24T05:13:11.680Z,13.50
2019-02-24T05:15:52.773Z,14.67
2019-02-24T05:18:33.556Z,15.53
2019-02-24T05:21:14.036Z,14.13
2019-02-24T05:23:55.208Z,14.27
2019-02-24T05:26:35.674Z,14.17
2019-02-24T05:29:16.143Z,13.87
2019-02-24T05:31:57.010Z,14.57
2019-02-24T05:34:37.631Z,14.67
2019-02-24T05:37:18.436Z,14.83
2019-02-24T05:39:58.808Z,14.07
2019-02-24T05:42:39.407Z,14.47
2019-02-24T05:45:20.217Z,14.60
2019-02-24T05:48:01.093Z,14.50
2019-02-24T05:50:41.705Z,14.30
2019-02-24T05:53:22.109Z,14.13
2019-02-24T05:56:03.175Z,15.07
2019-02-24T05:58:43.706Z,15.00
2019-02-24T06:01:24.477Z,15.13
2019-02-24T06:04:05.253Z,14.57
2019-02-24T06:06:46.025Z,14.20
2019-02-24T06:09:26.525Z,14.40
2019-02-24T06:12:07.081Z,14.07
2019-02-24T06:14:47.784Z,15.03
2019-02-24T06:17:28.589Z,14.40
2019-02-24T06:20:09.027Z,13.87
2019-02-24T06:22:49.606Z,14.67
2019-02-24T06:25:30.281Z,13.73
2019-02-24T06:28:11.310Z,15.13
2019-02-24T06:30:51.808Z,15.13
2019-02-24T06:33:32.326Z,14.80
2019-02-24T06:36:13.095Z,14.40
2019-02-24T06:38:53.501Z,14.53
2019-02-24T06:41:34.080Z,15.63
2019-02-24T06:44:14.984Z,14.43
2019-02-24T06:46:55.836Z,15.17
2019-02-24T06:49:36.474Z,14.37
2019-02-24T06:52:19.035Z,14.43
2019-02-24T06:54:59.219Z,14.50
2019-02-24T06:57:39.936Z,14.17
2019-02-24T07:00:20.949Z,15.70
2019-02-24T07:03:01.909Z,16.67
2019-02-24T07:05:42.444Z,15.47
2019-02-24T07:08:23.468Z,16.03
2019-02-24T07:11:04.036Z,14.83
2019-02-24T07:13:32.496Z,16.03
2019-02-24T07:16:20.325Z,14.93
2019-02-24T07:19:08.064Z,15.43
2019-02-24T07:21:55.828Z,16.27
2019-02-24T07:24:43.572Z,14.23
2019-02-24T07:27:31.331Z,15.57
2019-02-24T07:30:23.616Z,16.03
2019-02-24T07:33:08.601Z,15.67
2019-02-24T07:35:56.343Z,16.67
2019-02-24T07:38:44.101Z,16.77
2019-02-24T07:41:31.844Z,16.53
2019-02-24T07:44:19.879Z,16.37
2019-02-24T07:47:07.624Z,15.23
2019-02-24T07:49:55.385Z,16.87
2019-02-24T07:52:43.131Z,16.57
2019-02-24T07:55:30.901Z,16.37
2019-02-24T07:58:18.640Z,16.87
2019-02-24T08:01:06.410Z,16.00
2019-02-24T08:03:54.144Z,17.00
2019-02-24T08:06:41.908Z,16.43
2019-02-24T08:09:29.644Z,15.67
2019-02-24T08:12:17.716Z,16.57
2019-02-24T08:15:26.416Z,17.47
2019-02-24T08:18:14.167Z,17.17
2019-02-24T08:20:55.199Z,17.07
2019-02-24T08:23:36.096Z,17.73
2019-02-24T08:26:16.697Z,16.60
2019-02-24T08:28:57.769Z,16.80
2019-02-24T08:31:38.705Z,16.77
2019-02-24T08:34:19.465Z,16.50
2019-02-24T08:37:00.469Z,16.60
2019-02-24T08:39:41.173Z,16.77
2019-02-24T08:42:21.783Z,16.60
2019-02-24T08:45:02.384Z,17.03
2019-02-24T08:47:42.850Z,17.07
2019-02-24T08:50:23.617Z,17.17
2019-02-24T08:53:04.422Z,18.07
2019-02-24T08:55:45.026Z,17.83
2019-02-24T08:58:25.797Z,20.80
2019-02-24T09:01:06.808Z,17.80
2019-02-24T09:03:47.853Z,17.73
2019-02-24T09:06:28.355Z,16.40
2019-02-24T09:09:09.012Z,15.90
2019-02-24T09:11:49.924Z,17.80
2019-02-24T09:14:31.051Z,15.77
2019-02-24T09:17:11.657Z,15.77
2019-02-24T09:19:52.597Z,16.67
2019-02-24T09:22:33.293Z,15.73
2019-02-24T09:25:13.992Z,16.27
2019-02-24T09:27:54.618Z,16.93
2019-02-24T09:30:35.604Z,16.17
2019-02-24T09:33:16.482Z,16.03
2019-02-24T09:35:57.560Z,15.83
2019-02-24T09:38:38.103Z,16.53
2019-02-24T09:41:19.267Z,15.70
2019-02-24T09:43:59.677Z,16.13
2019-02-24T09:46:40.244Z,16.37
2019-02-24T09:49:21.032Z,15.70
2019-02-24T09:52:01.558Z,15.67
2019-02-24T09:54:42.270Z,16.20
2019-02-24T09:57:23.189Z,9.57
2019-02-24T10:00:03.607Z,16.23
2019-02-24T10:02:44.640Z,15.33
2019-02-24T10:05:25.166Z,15.17
2019-02-24T10:08:08.080Z,25.43
2019-02-24T10:10:46.648Z,15.47
2019-02-24T10:13:34.420Z,15.60
2019-02-24T10:16:22.175Z,15.37
2019-02-24T10:19:09.927Z,15.17
2019-02-24T10:21:57.679Z,14.70
2019-02-24T10:24:45.459Z,15.00
2019-02-24T10:27:33.189Z,14.87
2019-02-24T10:30:20.954Z,15.13
2019-02-24T10:33:08.729Z,14.93
2019-02-24T10:35:56.481Z,15.63
2019-02-24T10:38:44.750Z,16.60
2019-02-24T10:41:32.524Z,16.87
2019-02-24T10:44:39.848Z,15.23
2019-02-24T10:47:27.654Z,15.47
2019-02-24T10:52:57.259Z,14.50
2019-02-24T10:55:37.896Z,16.20
2019-02-24T10:58:18.751Z,16.13
2019-02-24T11:00:59.849Z,15.23
2019-02-24T11:03:40.842Z,16.33
2019-02-24T11:06:21.438Z,15.73
2019-02-24T11:09:02.507Z,15.00
2019-02-24T11:11:42.838Z,15.13
2019-02-24T11:14:23.940Z,16.83
2019-02-24T11:17:04.829Z,14.60
2019-02-24T11:19:45.651Z,15.03
2019-02-24T11:22:26.071Z,14.23
2019-02-24T11:25:06.610Z,14.00
2019-02-24T11:27:47.785Z,13.73
2019-02-24T11:30:28.945Z,14.20
2019-02-24T11:33:09.788Z,14.97
2019-02-24T11:35:50.413Z,14.47
2019-02-24T11:38:30.823Z,13.83
2019-02-24T11:41:11.931Z,14.03
2019-02-24T11:43:53.044Z,14.00
2019-02-24T11:46:34.192Z,14.30
2019-02-24T11:49:14.514Z,13.10
2019-02-24T11:52:03.497Z,14.90
2019-02-24T11:54:37.928Z,13.60
2019-02-24T11:57:18.870Z,14.20
2019-02-24T11:59:59.542Z,14.17
2019-02-24T12:02:41.858Z,14.20
2019-02-24T12:05:22.631Z,13.10
2019-02-24T12:08:03.709Z,14.47
2019-02-24T12:10:44.148Z,14.03
2019-02-24T12:13:25.228Z,14.83
2019-02-24T12:16:07.244Z,14.53
2019-02-24T12:18:47.653Z,15.73
2019-02-24T12:21:28.542Z,16.93
2019-02-24T12:24:09.497Z,17.63
2019-02-24T12:26:49.961Z,18.17
2019-02-24T12:29:31.046Z,17.13
2019-02-24T12:32:11.755Z,17.07
2019-02-24T12:34:53.148Z,17.07
2019-02-24T12:37:33.650Z,16.90
2019-02-24T12:40:14.286Z,14.93
2019-02-24T12:42:54.996Z,16.00
2019-02-24T12:45:35.653Z,16.27
2019-02-24T12:48:16.367Z,14.30
2019-02-24T12:50:57.478Z,15.00
2019-02-24T12:53:38.251Z,18.23
2019-02-24T12:56:17.104Z,16.97
2019-02-24T12:59:04.877Z,17.53
2019-02-24T13:01:52.674Z,18.20
2019-02-24T13:04:40.485Z,17.70
2019-02-24T13:07:28.674Z,16.63
2019-02-24T13:10:16.680Z,6.70
2019-02-24T13:13:04.462Z,17.23
2019-02-24T13:15:52.207Z,17.03
2019-02-24T13:18:40.256Z,16.40
2019-02-24T13:21:28.134Z,17.13
2019-02-24T13:24:15.888Z,18.23
2019-02-24T13:27:05.504Z,16.60
2019-02-24T13:29:46.489Z,17.43
2019-02-24T13:32:27.560Z,16.73
2019-02-24T13:35:08.163Z,17.53
2019-02-24T13:37:48.685Z,17.20
2019-02-24T13:40:29.599Z,17.43
2019-02-24T13:43:10.722Z,17.30
2019-02-24T13:45:51.093Z,17.43
2019-02-24T13:48:35.520Z,16.27
2019-02-24T13:51:16.030Z,15.10
2019-02-24T13:53:56.562Z,16.07
2019-02-24T13:56:37.288Z,14.67
2019-02-24T14:01:57.145Z,14.93
2019-02-24T14:04:37.517Z,14.43
2019-02-24T14:07:18.109Z,16.10
2019-02-24T14:09:59.028Z,15.30
2019-02-24T14:12:39.808Z,15.50
2019-02-24T14:15:20.693Z,14.83
2019-02-24T14:18:01.770Z,14.33
2019-02-24T14:20:42.792Z,15.07
2019-02-24T14:23:23.332Z,15.00
2019-02-24T14:26:04.429Z,14.50
2019-02-24T14:28:45.122Z,15.67
2019-02-24T14:31:25.755Z,15.27
2019-02-24T14:34:06.672Z,9.47
2019-02-24T14:36:47.524Z,13.93
2019-02-24T14:39:28.218Z,13.90
2019-02-24T14:42:08.859Z,12.77
2019-02-24T14:44:49.781Z,12.33
2019-02-24T14:47:30.853Z,9.03
2019-02-24T14:50:11.832Z,11.30
2019-02-24T14:52:52.347Z,14.90
2019-02-24T14:55:33.280Z,12.77
2019-02-24T14:58:17.192Z,12.83
2019-02-24T15:01:00.638Z,13.80
2019-02-24T15:03:41.296Z,11.57
2019-02-24T15:06:21.948Z,9.53
2019-02-24T15:09:02.528Z,12.70
2019-02-24T15:11:31.280Z,14.43
2019-02-24T15:14:19.076Z,10.27
2019-02-24T15:17:06.823Z,8.83
2019-02-24T15:19:54.589Z,10.20
2019-02-24T15:22:42.340Z,12.00
2019-02-24T15:25:30.091Z,12.33
2019-02-24T15:28:17.862Z,12.03
2019-02-24T15:31:05.924Z,13.67
2019-02-24T15:33:47.053Z,13.73
2019-02-24T15:36:27.865Z,12.27
2019-02-24T15:39:08.265Z,12.27
2019-02-24T15:41:49.118Z,13.33
2019-02-24T15:44:17.620Z,13.17
2019-02-24T15:47:05.384Z,12.57
2019-02-24T15:49:53.481Z,12.23
2019-02-24T15:52:41.225Z,14.20
2019-02-24T15:55:21.913Z,13.07
2019-02-24T15:58:03.006Z,14.00
2019-02-24T16:00:43.537Z,13.97
2019-02-24T16:03:24.233Z,12.97
2019-02-24T16:06:05.221Z,12.70
2019-02-24T16:08:46.014Z,14.80
2019-02-24T16:11:26.834Z,13.70
2019-02-24T16:14:07.140Z,13.47
2019-02-24T16:16:48.047Z,17.00
2019-02-24T16:19:28.888Z,16.60
2019-02-24T16:22:09.669Z,16.77
2019-02-24T16:24:50.550Z,17.97
2019-02-24T16:27:31.485Z,13.60
2019-02-24T16:30:12.031Z,13.27
2019-02-24T16:32:53.578Z,12.93
2019-02-24T16:35:34.677Z,13.40
2019-02-24T16:38:15.419Z,14.40
2019-02-24T16:40:56.244Z,14.07
2019-02-24T16:43:37.245Z,14.03
2019-02-24T16:46:17.657Z,13.90
2019-02-24T16:48:58.873Z,14.77
2019-02-24T16:51:39.325Z,12.53
2019-02-24T16:54:20.129Z,13.40
2019-02-24T16:57:04.944Z,14.27
2019-02-24T16:59:43.857Z,13.70
2019-02-24T17:02:24.435Z,14.60
2019-02-24T17:05:05.111Z,23.60
2019-02-24T17:07:45.800Z,20.60
2019-02-24T17:10:26.625Z,21.90
2019-02-24T17:13:07.129Z,22.47
2019-02-24T17:15:47.763Z,17.60
2019-02-24T17:18:28.797Z,16.27
2019-02-24T17:21:09.329Z,15.87
2019-02-24T17:23:52.243Z,15.93
2019-02-24T17:26:32.976Z,15.53
2019-02-24T17:29:13.997Z,17.47
2019-02-24T17:31:54.531Z,93.73
2019-02-24T17:34:35.401Z,20.77
2019-02-24T17:37:20.040Z,16.53
2019-02-24T17:39:58.636Z,18.53
2019-02-24T17:42:39.514Z,18.87
2019-02-24T17:45:20.410Z,18.07
2019-02-24T17:48:01.242Z,17.83
2019-02-24T17:50:42.137Z,22.67
2019-02-24T17:53:22.905Z,18.87
2019-02-24T17:56:03.924Z,19.43
2019-02-24T17:58:44.985Z,18.53
2019-02-24T18:01:26.095Z,18.27
2019-02-24T18:04:06.525Z,16.77
2019-02-24T18:06:47.577Z,16.90
2019-02-24T18:09:28.258Z,19.13
2019-02-24T18:12:08.704Z,17.67
2019-02-24T18:14:49.604Z,16.77
2019-02-24T18:17:30.681Z,19.27
2019-02-24T18:20:11.235Z,20.27
2019-02-24T18:22:51.745Z,18.17
2019-02-24T18:25:33.019Z,17.33
2019-02-24T18:28:13.728Z,18.43
2019-02-24T18:30:54.306Z,19.63
2019-02-24T18:33:34.968Z,18.43
2019-02-24T18:36:15.732Z,18.10
2019-02-24T18:38:56.615Z,16.80
2019-02-24T18:41:37.568Z,17.77
2019-02-24T18:44:18.121Z,20.30
2019-02-24T18:46:58.905Z,19.23
2019-02-24T18:49:39.886Z,21.73
2019-02-24T18:52:20.644Z,23.37
2019-02-24T18:55:01.189Z,20.67
2019-02-24T18:57:42.508Z,19.70
2019-02-24T19:00:22.935Z,19.27
2019-02-24T19:03:03.688Z,20.23
2019-02-24T19:05:44.649Z,19.53
2019-02-24T19:08:25.376Z,19.27
2019-02-24T19:11:06.236Z,18.77
2019-02-24T19:13:46.942Z,18.00
2019-02-24T19:16:27.685Z,18.47
2019-02-24T19:19:08.664Z,18.67
2019-02-24T19:21:49.107Z,18.37
2019-02-24T19:24:29.758Z,17.27
2019-02-24T19:27:10.633Z,18.60
2019-02-24T19:29:51.973Z,19.60
2019-02-24T19:32:32.592Z,19.67
2019-02-24T19:35:13.041Z,19.33
2019-02-24T19:37:53.532Z,21.07
2019-02-24T19:40:34.668Z,18.93
2019-02-24T19:43:15.721Z,18.20
2019-02-24T19:45:56.657Z,19.87
2019-02-24T19:48:41.965Z,19.63
2019-02-24T19:51:20.139Z,21.87
2019-02-24T19:54:01.193Z,21.13
2019-02-24T19:56:41.985Z,22.10
2019-02-24T19:59:22.789Z,19.87
2019-02-24T20:02:03.217Z,19.83
2019-02-24T20:04:44.211Z,19.77
2019-02-24T20:07:24.956Z,20.97
2019-02-24T20:10:05.840Z,19.87
2019-02-24T20:12:46.441Z,19.47
2019-02-24T20:15:27.065Z,19.00
2019-02-24T20:18:07.888Z,20.73
2019-02-24T20:20:49.132Z,21.53
2019-02-24T20:23:30.063Z,21.03
2019-02-24T20:26:10.492Z,20.47
2019-02-24T20:28:51.334Z,20.30
2019-02-24T20:31:32.014Z,19.30
2019-02-24T20:34:12.629Z,20.13
2019-02-24T20:36:53.263Z,19.77
2019-02-24T20:39:33.837Z,21.87
2019-02-24T20:42:14.585Z,22.90
2019-02-24T20:44:54.806Z,20.90
2019-02-24T20:47:35.195Z,21.17
2019-02-24T20:50:15.826Z,22.50
2019-02-24T20:52:56.676Z,22.37
2019-02-24T20:55:37.267Z,21.57
2019-02-24T20:58:18.196Z,22.23
2019-02-24T21:00:58.711Z,22.00
2019-02-24T21:03:39.544Z,21.07
2019-02-24T21:06:20.322Z,20.00
2019-02-24T21:09:01.005Z,20.83
2019-02-24T21:11:41.475Z,20.60
2019-02-24T21:14:22.198Z,21.97
2019-02-24T21:17:02.900Z,22.73
2019-02-24T21:19:43.227Z,21.13
2019-02-24T21:22:24.109Z,21.97
2019-02-24T21:25:04.633Z,21.50
2019-02-24T21:27:45.421Z,21.73
2019-02-24T21:30:26.333Z,23.13
2019-02-24T21:33:07.211Z,22.83
2019-02-24T21:35:48.193Z,23.77
2019-02-24T21:38:29.179Z,24.23
2019-02-24T21:41:10.176Z,24.47
2019-02-24T21:43:50.811Z,24.27
2019-02-24T21:46:31.602Z,24.90
2019-02-24T21:49:12.409Z,23.93
2019-02-24T21:51:52.897Z,24.53
2019-02-24T21:54:33.629Z,27.07
2019-02-24T21:57:14.585Z,31.90
2019-02-24T21:59:55.562Z,31.23
2019-02-24T22:02:36.304Z,32.03
2019-02-24T22:05:16.938Z,32.33
2019-02-24T22:07:57.685Z,28.87
2019-02-24T22:10:38.740Z,27.57
2019-02-24T22:13:19.189Z,26.67
2019-02-24T22:16:00.208Z,27.40
2019-02-24T22:18:40.842Z,26.67
2019-02-24T22:21:21.644Z,25.57
2019-02-24T22:24:02.686Z,26.87
2019-02-24T22:26:43.313Z,27.20
2019-02-24T22:29:24.008Z,24.90
2019-02-24T22:32:05.036Z,26.33
2019-02-24T22:34:45.948Z,26.87
2019-02-24T22:37:26.348Z,29.33
2019-02-24T22:40:07.374Z,27.43
2019-02-24T22:42:48.012Z,27.00
2019-02-24T22:45:28.649Z,27.27
2019-02-24T22:48:09.521Z,28.10
2019-02-24T22:50:49.962Z,26.63
2019-02-24T22:53:30.784Z,26.27
2019-02-24T22:56:11.409Z,24.97
2019-02-24T22:58:52.064Z,23.97
2019-02-24T23:01:33.460Z,25.23
2019-02-24T23:04:13.840Z,24.57
2019-02-24T23:06:54.238Z,24.07
2019-02-24T23:09:34.968Z,25.87
2019-02-24T23:12:16.033Z,25.03
2019-02-24T23:14:56.833Z,25.23
2019-02-24T23:17:37.511Z,24.47
2019-02-24T23:20:18.573Z,24.17
2019-02-24T23:22:59.657Z,23.43
2019-02-24T23:25:40.689Z,24.43
2019-02-24T23:28:21.235Z,23.87
2019-02-24T23:31:01.841Z,24.50
2019-02-24T23:33:42.713Z,25.77
2019-02-24T23:36:23.377Z,26.83
2019-02-24T23:39:04.196Z,29.40
2019-02-24T23:41:44.811Z,28.07
2019-02-24T23:44:25.507Z,28.00
2019-02-24T23:47:06.616Z,25.10
2019-02-24T23:49:47.329Z,25.57
2019-02-24T23:52:27.926Z,26.87
2019-02-24T23:55:08.945Z,23.60
2019-02-24T23:57:49.837Z,23.53
